Fine Lakes, Minnesota
Current Conditions -  °F | °C
As of 6:36 AM on Monday 20 Oct 2014 (Local Time) from KCOQ Reporting Station
Clear Clear  
Wind Chill: 37°   Ceiling: Unl
Heat Index: 41°   Visibility: 10mi
Dew Point: 37°   Wind: 6mph
Humidity: 87%   Direction: 270°W
Pressure: 29.91"   Gusts: NA
Location:  46.8211°N, 92.6871°W
Report Text: KCOQ 201136Z AUTO 27005KT 10SM CLR 05/03 A2991 RMK AO2
Loading
Personal Weather Stations






























Interactive Weather Map
Tropical Storm Tracking
New forecast layout! Learn more

10-Day Weather Forecast

Advertisements
Track Severe Weather on mobile